createdAt,value
2017-12-06T00:02:01.261Z,99.00
2017-12-06T00:04:31.285Z,99.10
2017-12-06T00:07:00.542Z,99.10
2017-12-06T00:09:30.442Z,99.10
2017-12-06T00:11:59.820Z,99.30
2017-12-06T00:14:35.196Z,99.60
2017-12-06T00:17:04.608Z,99.60
2017-12-06T00:19:33.853Z,99.70
2017-12-06T00:22:03.125Z,99.60
2017-12-06T00:24:32.389Z,99.50
2017-12-06T00:27:01.664Z,99.70
2017-12-06T00:29:31.675Z,99.70
2017-12-06T00:32:00.918Z,99.70
2017-12-06T00:34:30.177Z,99.70
2017-12-06T00:36:59.449Z,99.60
2017-12-06T00:39:28.720Z,99.30
2017-12-06T00:41:57.973Z,99.40
2017-12-06T00:44:27.260Z,99.50
2017-12-06T00:46:56.501Z,99.30
2017-12-06T00:49:26.069Z,99.60
2017-12-06T00:51:55.434Z,99.80
2017-12-06T00:54:24.674Z,99.80
2017-12-06T00:56:53.939Z,99.90
2017-12-06T00:59:24.022Z,99.90
2017-12-06T01:01:53.289Z,99.90
2017-12-06T01:04:23.353Z,99.90
2017-12-06T01:06:52.753Z,99.90
2017-12-06T01:09:22.006Z,99.90
2017-12-06T01:11:51.263Z,99.60
2017-12-06T01:14:21.355Z,99.90
2017-12-06T01:16:50.729Z,99.80
2017-12-06T01:19:20.005Z,99.80
2017-12-06T01:21:49.256Z,99.90
2017-12-06T01:24:18.509Z,99.80
2017-12-06T01:26:48.585Z,99.80
2017-12-06T01:29:17.881Z,99.90
2017-12-06T01:31:47.133Z,99.70
2017-12-06T01:34:16.462Z,99.90
2017-12-06T01:36:46.482Z,99.90
2017-12-06T01:39:15.740Z,99.60
2017-12-06T01:41:44.985Z,99.50
2017-12-06T01:44:15.022Z,99.70
2017-12-06T01:46:44.381Z,99.70
2017-12-06T01:49:13.629Z,99.80
2017-12-06T01:51:42.901Z,99.60
2017-12-06T01:54:12.160Z,99.70
2017-12-06T01:56:41.406Z,99.80
2017-12-06T01:59:11.441Z,99.60
2017-12-06T02:01:40.713Z,99.60
2017-12-06T02:04:11.550Z,99.90
2017-12-06T02:06:41.061Z,99.90
2017-12-06T02:09:10.374Z,99.90
2017-12-06T02:11:40.674Z,99.90
2017-12-06T02:14:09.949Z,99.90
2017-12-06T02:16:39.203Z,99.60
2017-12-06T02:19:08.454Z,99.50
2017-12-06T02:21:37.723Z,99.30
2017-12-06T02:24:06.999Z,99.10
2017-12-06T02:26:37.015Z,99.10
2017-12-06T02:29:06.298Z,99.10
2017-12-06T02:31:35.549Z,99.00
2017-12-06T02:34:04.940Z,99.30
2017-12-06T02:36:34.284Z,99.40
2017-12-06T02:39:03.609Z,99.50
2017-12-06T02:41:50.737Z,99.50
2017-12-06T02:44:37.490Z,99.50
2017-12-06T02:47:06.960Z,99.50
2017-12-06T02:49:36.202Z,98.90
2017-12-06T02:52:05.446Z,98.80
2017-12-06T02:54:34.693Z,98.90
2017-12-06T02:57:03.953Z,99.10
2017-12-06T02:59:33.388Z,99.00
2017-12-06T03:02:02.839Z,99.20
2017-12-06T03:04:32.269Z,99.30
2017-12-06T03:07:02.390Z,99.10
2017-12-06T03:09:32.506Z,99.20
2017-12-06T03:12:01.745Z,99.20
2017-12-06T03:14:31.021Z,99.40
2017-12-06T03:17:00.374Z,99.40
2017-12-06T03:19:29.620Z,99.20
2017-12-06T03:21:58.892Z,99.30
2017-12-06T03:24:28.326Z,99.20
2017-12-06T03:26:58.446Z,98.70
2017-12-06T03:29:28.497Z,98.70
2017-12-06T03:31:57.784Z,98.70
2017-12-06T03:34:27.055Z,99.00
2017-12-06T03:36:56.670Z,98.90
2017-12-06T03:39:26.695Z,98.70
2017-12-06T03:41:56.117Z,98.70
2017-12-06T03:44:25.603Z,99.10
2017-12-06T03:46:55.917Z,98.90
2017-12-06T03:49:25.230Z,98.90
2017-12-06T03:51:55.250Z,98.90
2017-12-06T03:54:24.528Z,98.90
2017-12-06T03:56:53.780Z,98.90
2017-12-06T03:59:23.037Z,99.00
2017-12-06T04:01:52.316Z,98.70
2017-12-06T04:04:21.550Z,99.30
2017-12-06T04:06:50.959Z,99.00
2017-12-06T04:09:21.061Z,99.10
2017-12-06T04:11:50.382Z,99.10
2017-12-06T04:14:20.422Z,99.30
2017-12-06T04:16:49.681Z,99.30
2017-12-06T04:19:19.061Z,99.10
2017-12-06T04:21:48.319Z,99.40
2017-12-06T04:24:17.910Z,99.50
2017-12-06T04:26:47.943Z,99.50
2017-12-06T04:29:17.389Z,99.40
2017-12-06T04:31:47.473Z,99.40
2017-12-06T04:34:16.751Z,99.40
2017-12-06T04:36:46.863Z,99.50
2017-12-06T04:39:16.169Z,99.50
2017-12-06T04:41:46.232Z,99.30
2017-12-06T04:44:15.566Z,99.40
2017-12-06T04:46:44.885Z,99.50
2017-12-06T04:49:14.916Z,99.60
2017-12-06T04:51:44.187Z,99.40
2017-12-06T04:54:13.437Z,99.50
2017-12-06T04:56:42.709Z,99.70
2017-12-06T04:59:12.756Z,99.90
2017-12-06T05:01:42.007Z,99.80
2017-12-06T05:04:11.251Z,99.90
2017-12-06T05:06:40.538Z,99.90
2017-12-06T05:09:09.910Z,99.90
2017-12-06T05:11:39.163Z,99.50
2017-12-06T05:14:08.456Z,99.70
2017-12-06T05:16:37.678Z,99.50
2017-12-06T05:19:06.933Z,99.60
2017-12-06T05:21:36.172Z,99.40
2017-12-06T05:24:05.443Z,98.80
2017-12-06T05:26:35.477Z,98.50
2017-12-06T05:29:04.728Z,98.50
2017-12-06T05:31:33.977Z,98.70
2017-12-06T05:34:03.246Z,98.70
2017-12-06T05:36:32.756Z,98.70
2017-12-06T05:39:02.026Z,98.30
2017-12-06T05:41:32.206Z,98.40
2017-12-06T05:44:02.910Z,98.40
2017-12-06T05:46:32.535Z,98.40
2017-12-06T05:49:01.809Z,98.70
2017-12-06T05:51:32.584Z,98.20
2017-12-06T05:54:01.849Z,98.20
2017-12-06T05:56:31.097Z,98.50
2017-12-06T05:59:00.574Z,99.00
2017-12-06T06:01:30.591Z,99.30
2017-12-06T06:03:59.991Z,99.30
2017-12-06T06:06:30.113Z,99.50
2017-12-06T06:09:00.239Z,99.80
2017-12-06T06:11:30.249Z,99.50
2017-12-06T06:13:59.502Z,99.50
2017-12-06T06:16:28.762Z,98.80
2017-12-06T06:18:59.616Z,99.20
2017-12-06T06:21:29.742Z,99.20
2017-12-06T06:23:59.087Z,99.20
2017-12-06T06:26:28.445Z,99.40
2017-12-06T06:28:58.505Z,99.30
2017-12-06T06:31:27.754Z,99.30
2017-12-06T06:33:58.004Z,98.30
2017-12-06T06:36:28.026Z,99.00
2017-12-06T06:38:57.409Z,98.90
2017-12-06T06:41:27.421Z,99.60
2017-12-06T06:43:58.377Z,99.50
2017-12-06T06:46:27.618Z,99.50
2017-12-06T06:48:57.086Z,99.60
2017-12-06T06:51:27.400Z,99.90
2017-12-06T06:53:56.621Z,99.80
2017-12-06T06:56:25.880Z,99.90
2017-12-06T06:58:55.129Z,99.50
2017-12-06T07:01:25.271Z,99.80
2017-12-06T07:03:54.535Z,99.70
2017-12-06T07:06:23.902Z,99.70
2017-12-06T07:08:53.134Z,99.70
2017-12-06T07:11:23.170Z,99.70
2017-12-06T07:13:52.419Z,99.70
2017-12-06T07:16:21.687Z,99.80
2017-12-06T07:18:50.959Z,99.90
2017-12-06T07:21:20.250Z,99.90
2017-12-06T07:23:50.286Z,99.90
2017-12-06T07:26:19.680Z,99.90
2017-12-06T07:28:49.710Z,99.90
2017-12-06T07:31:18.978Z,99.90
2017-12-06T07:33:48.229Z,99.90
2017-12-06T07:36:17.690Z,99.90
2017-12-06T07:38:47.810Z,99.90
2017-12-06T07:41:17.936Z,99.90
2017-12-06T07:43:47.954Z,99.90
2017-12-06T07:46:17.204Z,99.90
2017-12-06T07:48:46.473Z,99.90
2017-12-06T07:51:15.726Z,99.90
2017-12-06T07:53:45.055Z,99.70
2017-12-06T07:56:15.197Z,99.70
2017-12-06T07:58:46.246Z,99.60
2017-12-06T08:01:15.486Z,99.80
2017-12-06T08:03:44.952Z,99.60
2017-12-06T08:06:14.924Z,99.70
2017-12-06T08:08:44.180Z,99.70
2017-12-06T08:11:13.441Z,99.70
2017-12-06T08:13:43.462Z,99.70
2017-12-06T08:16:12.714Z,99.60
2017-12-06T08:18:41.961Z,99.60
2017-12-06T08:21:11.985Z,99.40
2017-12-06T08:23:41.381Z,99.40
2017-12-06T08:26:10.673Z,99.50
2017-12-06T08:28:40.037Z,99.50
2017-12-06T08:31:09.257Z,99.30
2017-12-06T08:33:38.579Z,99.60
2017-12-06T08:36:07.894Z,99.40
2017-12-06T08:38:37.306Z,99.30
2017-12-06T08:41:06.701Z,99.10
2017-12-06T08:43:35.971Z,99.30
2017-12-06T08:46:05.226Z,99.30
2017-12-06T08:48:34.604Z,99.10
2017-12-06T08:51:04.624Z,98.70
2017-12-06T08:53:33.862Z,98.70
2017-12-06T08:56:03.125Z,98.90
2017-12-06T08:58:33.150Z,98.90
2017-12-06T09:01:02.506Z,98.80
2017-12-06T09:03:31.740Z,98.00
2017-12-06T09:06:01.010Z,98.30
2017-12-06T09:08:30.446Z,98.40
2017-12-06T09:10:59.698Z,97.30
2017-12-06T09:13:29.003Z,97.70
2017-12-06T09:15:58.254Z,98.00
2017-12-06T09:18:27.489Z,98.00
2017-12-06T09:20:56.749Z,98.20
2017-12-06T09:23:26.869Z,97.40
2017-12-06T09:25:56.989Z,96.80
2017-12-06T09:28:26.282Z,96.70
2017-12-06T09:30:55.521Z,94.60
2017-12-06T09:33:24.823Z,94.50
2017-12-06T09:35:54.018Z,94.90
2017-12-06T09:38:23.304Z,95.60
2017-12-06T09:40:53.354Z,94.50
2017-12-06T09:43:22.606Z,94.40
2017-12-06T09:45:52.009Z,94.20
2017-12-06T09:48:21.318Z,93.80
2017-12-06T09:50:51.438Z,93.50
2017-12-06T09:53:20.689Z,93.40
2017-12-06T09:55:49.990Z,93.80
2017-12-06T09:58:19.262Z,93.20
2017-12-06T10:00:48.594Z,93.50
2017-12-06T10:03:17.863Z,93.40
2017-12-06T10:05:47.237Z,93.20
2017-12-06T10:08:16.543Z,92.90
2017-12-06T10:10:45.868Z,93.30
2017-12-06T10:13:15.883Z,93.20
2017-12-06T10:15:45.137Z,93.20
2017-12-06T10:18:14.376Z,93.30
2017-12-06T10:20:43.754Z,93.50
2017-12-06T10:23:13.187Z,93.00
2017-12-06T10:25:43.282Z,92.70
2017-12-06T10:28:12.597Z,92.70
2017-12-06T10:30:42.701Z,92.30
2017-12-06T10:33:11.938Z,92.30
2017-12-06T10:35:41.181Z,92.20
2017-12-06T10:38:10.461Z,91.90
2017-12-06T10:40:39.725Z,91.70
2017-12-06T10:43:09.800Z,92.00
2017-12-06T10:45:39.049Z,91.90
2017-12-06T10:48:08.317Z,92.00
2017-12-06T10:50:37.567Z,92.00
2017-12-06T10:53:06.815Z,92.40
2017-12-06T10:55:36.090Z,92.80
2017-12-06T10:58:05.333Z,92.50
2017-12-06T11:00:34.589Z,92.50
2017-12-06T11:03:04.042Z,92.30
2017-12-06T11:05:33.311Z,92.40
2017-12-06T11:08:02.551Z,92.60
2017-12-06T11:10:31.938Z,92.10
2017-12-06T11:13:01.185Z,92.50
2017-12-06T11:15:30.541Z,92.40
2017-12-06T11:18:00.090Z,92.60
2017-12-06T11:20:29.358Z,92.60
2017-12-06T11:22:59.387Z,92.80
2017-12-06T11:25:28.657Z,92.50
2017-12-06T11:27:57.884Z,92.50
2017-12-06T11:30:27.938Z,92.70
2017-12-06T11:32:57.176Z,92.70
2017-12-06T11:35:26.596Z,92.80
2017-12-06T11:37:56.688Z,93.10
2017-12-06T11:40:25.955Z,93.10
2017-12-06T11:42:55.347Z,93.20
2017-12-06T11:45:24.596Z,93.50
2017-12-06T11:47:53.903Z,93.30
2017-12-06T11:50:23.142Z,93.20
2017-12-06T11:52:52.528Z,93.30
2017-12-06T11:55:21.824Z,93.80
2017-12-06T11:57:51.068Z,93.50
2017-12-06T12:00:20.334Z,93.70
2017-12-06T12:02:50.332Z,93.70
2017-12-06T12:05:20.334Z,93.60
2017-12-06T12:07:49.594Z,93.80
2017-12-06T12:10:19.034Z,94.00
2017-12-06T12:12:48.306Z,94.30
2017-12-06T12:15:17.567Z,94.10
2017-12-06T12:17:46.978Z,93.80
2017-12-06T12:20:16.997Z,93.90
2017-12-06T12:22:46.600Z,93.90
2017-12-06T12:25:15.900Z,93.90
2017-12-06T12:27:45.141Z,93.60
2017-12-06T12:30:14.709Z,94.00
2017-12-06T12:32:44.778Z,94.10
2017-12-06T12:35:14.143Z,93.80
2017-12-06T12:37:44.169Z,94.00
2017-12-06T12:40:13.520Z,94.00
2017-12-06T12:42:44.594Z,94.00
2017-12-06T12:45:14.002Z,94.00
2017-12-06T12:47:43.514Z,93.70
2017-12-06T12:50:12.873Z,93.70
2017-12-06T12:52:42.160Z,94.00
2017-12-06T12:55:11.394Z,93.20
2017-12-06T12:57:41.512Z,94.10
2017-12-06T13:00:10.789Z,93.90
2017-12-06T13:02:40.197Z,93.90
2017-12-06T13:05:10.126Z,93.90
2017-12-06T13:07:40.135Z,94.20
2017-12-06T13:10:09.398Z,93.90
2017-12-06T13:12:38.667Z,93.90
2017-12-06T13:15:07.934Z,93.90
2017-12-06T13:17:37.242Z,94.10
2017-12-06T13:20:07.268Z,94.20
2017-12-06T13:22:36.505Z,94.20
2017-12-06T13:25:05.781Z,94.10
2017-12-06T13:27:35.792Z,94.30
2017-12-06T13:30:05.068Z,94.30
2017-12-06T13:32:34.369Z,94.20
2017-12-06T13:35:03.632Z,93.70
2017-12-06T13:37:32.895Z,93.90
2017-12-06T13:40:03.651Z,93.90
2017-12-06T13:42:32.894Z,93.90
2017-12-06T13:45:02.186Z,94.10
2017-12-06T13:47:31.810Z,93.80
2017-12-06T13:50:01.099Z,93.70
2017-12-06T13:52:30.348Z,94.20
2017-12-06T13:54:59.762Z,93.80
2017-12-06T13:57:29.793Z,94.00
2017-12-06T13:59:59.052Z,94.00
2017-12-06T14:02:28.327Z,94.20
2017-12-06T14:04:57.589Z,94.00
2017-12-06T14:07:28.331Z,94.10
2017-12-06T14:09:57.611Z,94.10
2017-12-06T14:12:27.621Z,94.50
2017-12-06T14:14:56.892Z,94.50
2017-12-06T14:17:26.137Z,94.40
2017-12-06T14:19:55.434Z,94.20
2017-12-06T14:22:24.693Z,94.40
2017-12-06T14:24:54.021Z,94.50
2017-12-06T14:27:24.150Z,94.50
2017-12-06T14:29:54.187Z,94.40
2017-12-06T14:32:23.437Z,94.40
2017-12-06T14:34:52.694Z,94.70
2017-12-06T14:37:21.993Z,94.70
2017-12-06T14:39:52.021Z,94.80
2017-12-06T14:42:21.397Z,94.80
2017-12-06T14:44:50.651Z,95.10
2017-12-06T14:47:19.893Z,96.30
2017-12-06T14:49:49.177Z,95.80
2017-12-06T14:52:18.639Z,95.30
2017-12-06T14:54:48.678Z,95.00
2017-12-06T14:57:17.938Z,95.00
2017-12-06T14:59:47.253Z,95.00
2017-12-06T15:02:16.842Z,95.30
2017-12-06T15:04:46.152Z,95.90
2017-12-06T15:07:15.401Z,95.60
2017-12-06T15:09:44.662Z,95.60
2017-12-06T15:12:13.922Z,95.30
2017-12-06T15:14:43.194Z,95.50
2017-12-06T15:17:12.445Z,96.00
2017-12-06T15:19:41.762Z,96.70
2017-12-06T15:22:11.026Z,95.30
2017-12-06T15:24:40.284Z,95.20
2017-12-06T15:27:09.670Z,95.00
2017-12-06T15:29:39.775Z,96.60
2017-12-06T15:32:09.046Z,96.60
2017-12-06T15:34:38.391Z,95.10
2017-12-06T15:37:07.665Z,95.60
2017-12-06T15:39:37.317Z,96.50
2017-12-06T15:42:06.560Z,95.60
2017-12-06T15:44:35.818Z,96.70
2017-12-06T15:47:05.101Z,96.50
2017-12-06T15:49:35.114Z,96.90
2017-12-06T15:52:04.414Z,96.90
2017-12-06T15:54:33.628Z,96.50
2017-12-06T15:57:03.661Z,96.60
2017-12-06T15:59:32.936Z,96.60
2017-12-06T16:02:02.206Z,96.70
2017-12-06T16:04:31.457Z,96.50
2017-12-06T16:07:01.524Z,97.50
2017-12-06T16:09:30.778Z,97.50
2017-12-06T16:12:00.066Z,97.10
2017-12-06T16:14:29.322Z,98.40
2017-12-06T16:16:58.622Z,97.40
2017-12-06T16:19:28.058Z,96.40
2017-12-06T16:21:58.074Z,96.70
2017-12-06T16:24:27.337Z,96.70
2017-12-06T16:26:56.632Z,97.70
2017-12-06T16:29:25.906Z,96.40
2017-12-06T16:31:55.998Z,97.80
2017-12-06T16:34:25.309Z,97.80
2017-12-06T16:40:00.292Z,97.00
2017-12-06T16:42:29.542Z,98.10
2017-12-06T16:44:58.819Z,97.40
2017-12-06T16:47:28.101Z,97.90
2017-12-06T16:49:57.410Z,97.60
2017-12-06T16:52:26.713Z,97.60
2017-12-06T16:54:55.924Z,98.50
2017-12-06T16:57:25.226Z,97.10
2017-12-06T16:59:54.501Z,98.90
2017-12-06T17:02:23.846Z,98.10
2017-12-06T17:04:53.738Z,97.50
2017-12-06T17:07:23.034Z,96.70
2017-12-06T17:09:52.412Z,97.00
2017-12-06T17:12:21.670Z,97.20
2017-12-06T17:14:50.962Z,97.10
2017-12-06T17:17:20.422Z,97.20
2017-12-06T17:19:50.313Z,97.60
2017-12-06T17:22:19.602Z,97.70
2017-12-06T17:24:49.706Z,97.20
2017-12-06T17:27:18.966Z,98.60
2017-12-06T17:30:05.840Z,98.10
2017-12-06T17:32:35.161Z,97.60
2017-12-06T17:35:05.163Z,98.50
2017-12-06T17:37:34.580Z,98.50
2017-12-06T17:40:04.599Z,99.20
2017-12-06T17:42:33.895Z,99.20
2017-12-06T17:45:03.168Z,99.10
2017-12-06T17:47:32.413Z,99.90
2017-12-06T17:50:20.163Z,99.90
2017-12-06T17:52:49.420Z,99.90
2017-12-06T17:55:18.729Z,99.00
2017-12-06T17:57:49.322Z,99.80
2017-12-06T18:00:18.614Z,99.80
2017-12-06T18:02:47.880Z,99.50
2017-12-06T18:05:17.891Z,99.00
2017-12-06T18:07:47.159Z,99.00
2017-12-06T18:10:16.436Z,99.90
2017-12-06T18:12:45.705Z,98.90
2017-12-06T18:15:14.969Z,99.60
2017-12-06T18:17:44.410Z,99.90
2017-12-06T18:20:13.817Z,99.30
2017-12-06T18:22:43.089Z,99.30
2017-12-06T18:25:13.830Z,99.80
2017-12-06T18:27:43.965Z,99.90
2017-12-06T18:30:13.975Z,99.90
2017-12-06T18:32:43.394Z,99.90
2017-12-06T18:35:13.338Z,99.80
2017-12-06T18:37:42.722Z,99.80
2017-12-06T18:40:11.993Z,99.90
2017-12-06T18:42:41.363Z,99.90
2017-12-06T18:45:10.658Z,99.90
2017-12-06T18:47:39.901Z,98.80
2017-12-06T18:50:09.950Z,99.90
2017-12-06T18:52:39.215Z,99.70
2017-12-06T18:55:08.627Z,99.90
2017-12-06T18:57:38.737Z,97.60
2017-12-06T19:00:07.944Z,97.50
2017-12-06T19:02:37.180Z,97.30
2017-12-06T19:05:06.499Z,97.90
2017-12-06T19:07:35.737Z,99.00
2017-12-06T19:10:05.780Z,98.60
2017-12-06T19:12:35.096Z,98.50
2017-12-06T19:15:04.878Z,99.00
2017-12-06T19:17:34.177Z,98.40
2017-12-06T19:20:04.221Z,98.10
2017-12-06T19:22:33.521Z,98.00
2017-12-06T19:25:02.778Z,98.30
2017-12-06T19:27:32.057Z,98.00
2017-12-06T19:30:02.159Z,98.40
2017-12-06T19:32:31.440Z,98.50
2017-12-06T19:35:00.750Z,98.70
2017-12-06T19:37:30.013Z,98.80
2017-12-06T19:39:59.275Z,99.50
2017-12-06T19:42:28.525Z,99.10
2017-12-06T19:44:57.816Z,99.90
2017-12-06T19:47:27.100Z,98.60
2017-12-06T19:49:56.397Z,98.10
2017-12-06T19:52:25.621Z,98.90
2017-12-06T19:54:55.676Z,97.80
2017-12-06T19:57:25.090Z,97.70
2017-12-06T19:59:54.426Z,97.20
2017-12-06T20:02:23.651Z,97.30
2017-12-06T20:04:52.929Z,97.50
2017-12-06T20:07:22.276Z,97.50
2017-12-06T20:09:51.571Z,97.60
2017-12-06T20:12:22.324Z,97.70
2017-12-06T20:14:51.595Z,97.70
2017-12-06T20:17:20.838Z,97.50
2017-12-06T20:19:50.080Z,97.50
2017-12-06T20:22:19.338Z,97.50
2017-12-06T20:24:48.608Z,97.40
2017-12-06T20:27:18.676Z,97.30
2017-12-06T20:29:47.941Z,97.30
2017-12-06T20:32:17.305Z,97.10
2017-12-06T20:34:46.543Z,97.40
2017-12-06T20:37:15.804Z,97.40
2017-12-06T20:39:45.140Z,97.40
2017-12-06T20:42:14.386Z,97.30
2017-12-06T20:44:43.661Z,97.20
2017-12-06T20:47:12.943Z,97.40
2017-12-06T20:49:42.214Z,97.40
2017-12-06T20:52:12.235Z,97.50
2017-12-06T20:54:41.523Z,97.40
2017-12-06T20:57:10.818Z,97.40
2017-12-06T20:59:40.275Z,97.30
2017-12-06T21:02:09.541Z,97.50
2017-12-06T21:04:39.661Z,98.00
2017-12-06T21:07:08.943Z,97.70
2017-12-06T21:09:38.274Z,97.50
2017-12-06T21:12:08.298Z,97.40
2017-12-06T21:14:37.712Z,97.40
2017-12-06T21:17:07.734Z,97.30
2017-12-06T21:19:37.127Z,97.20
2017-12-06T21:22:07.144Z,97.10
2017-12-06T21:24:36.435Z,97.10
2017-12-06T21:27:05.685Z,97.20
2017-12-06T21:29:34.950Z,97.20
2017-12-06T21:32:04.219Z,97.20
2017-12-06T21:34:33.490Z,97.30
2017-12-06T21:37:02.763Z,97.20
2017-12-06T21:39:32.063Z,97.10
2017-12-06T21:42:01.455Z,97.20
2017-12-06T21:44:30.852Z,97.50
2017-12-06T21:47:00.218Z,97.30
2017-12-06T21:49:30.352Z,97.30
2017-12-06T21:51:59.675Z,97.40
2017-12-06T21:54:30.735Z,97.30
2017-12-06T21:56:59.996Z,97.30
2017-12-06T21:59:29.262Z,97.20
2017-12-06T22:01:58.535Z,97.20
2017-12-06T22:04:27.800Z,97.30
2017-12-06T22:06:57.110Z,97.40
2017-12-06T22:09:26.358Z,97.60
2017-12-06T22:11:55.628Z,97.80
2017-12-06T22:14:24.881Z,97.40
2017-12-06T22:16:54.146Z,97.60
2017-12-06T22:19:23.422Z,97.90
2017-12-06T22:21:53.478Z,97.90
2017-12-06T22:24:22.746Z,97.80
2017-12-06T22:26:52.769Z,98.00
2017-12-06T22:29:22.814Z,97.80
2017-12-06T22:31:52.069Z,97.80
2017-12-06T22:34:21.329Z,98.10
2017-12-06T22:36:50.586Z,98.30
2017-12-06T22:39:20.906Z,98.00
2017-12-06T22:41:51.029Z,98.00
2017-12-06T22:44:20.299Z,98.00
2017-12-06T22:46:49.548Z,97.90
2017-12-06T22:49:18.827Z,97.60
2017-12-06T22:51:48.202Z,97.50
2017-12-06T22:54:17.551Z,97.70
2017-12-06T22:56:47.577Z,97.50
2017-12-06T22:59:16.839Z,97.50
2017-12-06T23:01:46.105Z,97.30
2017-12-06T23:04:15.561Z,97.20
2017-12-06T23:06:45.583Z,97.00
2017-12-06T23:09:14.853Z,97.30
2017-12-06T23:11:44.334Z,96.80
2017-12-06T23:14:13.786Z,96.70
2017-12-06T23:16:43.938Z,96.90
2017-12-06T23:19:13.172Z,96.90
2017-12-06T23:21:42.513Z,96.80
2017-12-06T23:24:11.796Z,96.50
2017-12-06T23:26:41.043Z,96.20
2017-12-06T23:29:10.406Z,96.20
2017-12-06T23:31:39.676Z,96.50
2017-12-06T23:34:09.225Z,97.00
2017-12-06T23:36:38.490Z,96.60
2017-12-06T23:39:08.035Z,96.30
2017-12-06T23:41:37.282Z,96.70
2017-12-06T23:44:07.490Z,96.90
2017-12-06T23:46:36.757Z,96.60
2017-12-06T23:49:07.698Z,95.70
2017-12-06T23:51:37.726Z,95.80
2017-12-06T23:54:06.990Z,95.80
2017-12-06T23:56:36.255Z,96.40
2017-12-06T23:59:05.503Z,96.10
